createdAt,value
2022-10-11T00:00:06.306Z,8.60
2022-10-11T00:02:33.112Z,8.60
2022-10-11T00:04:59.834Z,8.60
2022-10-11T00:07:26.582Z,8.50
2022-10-11T00:09:53.327Z,8.50
2022-10-11T00:12:20.078Z,8.50
2022-10-11T00:14:46.885Z,8.40
2022-10-11T00:17:13.686Z,8.40
2022-10-11T00:19:40.449Z,8.40
2022-10-11T00:22:07.278Z,8.30
2022-10-11T00:24:33.991Z,8.30
2022-10-11T00:27:00.726Z,8.20
2022-10-11T00:32:14.147Z,8.20
2022-10-11T00:37:27.494Z,8.20
2022-10-11T00:42:41.034Z,8.20
2022-10-11T00:45:26.435Z,8.00
2022-10-11T00:48:07.529Z,8.00
2022-10-11T00:50:36.586Z,8.00
2022-10-11T00:53:10.978Z,7.90
2022-10-11T00:56:04.484Z,7.80
2022-10-11T00:58:33.955Z,8.00
2022-10-11T01:03:47.635Z,8.00
2022-10-11T01:06:14.637Z,7.90
2022-10-11T01:11:30.888Z,7.80
2022-10-11T01:17:29.896Z,7.80
2022-10-11T01:20:02.208Z,7.80
2022-10-11T01:23:14.334Z,7.70
2022-10-11T01:25:55.846Z,7.80
2022-10-11T01:34:46.572Z,7.70
2022-10-11T01:37:37.248Z,7.80
2022-10-11T01:42:57.604Z,7.70
2022-10-11T01:45:24.878Z,7.70
2022-10-11T01:48:10.159Z,7.60
2022-10-11T01:50:36.830Z,7.70
2022-10-11T01:53:38.818Z,7.60
2022-10-11T01:56:45.735Z,7.60
2022-10-11T02:02:46.798Z,7.60
2022-10-11T02:11:47.048Z,7.60
2022-10-11T02:14:22.744Z,7.50
2022-10-11T02:16:55.076Z,7.50
2022-10-11T02:22:22.054Z,7.50
2022-10-11T02:24:53.770Z,7.50
2022-10-11T02:27:24.858Z,7.40
2022-10-11T02:32:43.777Z,7.50
2022-10-11T02:41:17.981Z,7.40
2022-10-11T02:44:06.942Z,7.30
2022-10-11T02:46:34.160Z,7.30
2022-10-11T02:49:01.943Z,7.30
2022-10-11T02:51:32.362Z,7.30
2022-10-11T02:53:59.651Z,7.30
2022-10-11T02:56:26.371Z,7.20
2022-10-11T02:58:53.107Z,7.30
2022-10-11T03:01:19.856Z,7.30
2022-10-11T03:03:46.599Z,7.20
2022-10-11T03:06:13.518Z,7.10
2022-10-11T03:08:40.300Z,7.30
2022-10-11T03:11:07.150Z,7.30
2022-10-11T03:13:33.898Z,7.30
2022-10-11T03:16:03.523Z,7.20
2022-10-11T03:18:31.095Z,7.10
2022-10-11T03:20:57.901Z,7.10
2022-10-11T03:23:24.657Z,7.20
2022-10-11T03:25:51.369Z,7.10
2022-10-11T03:31:04.805Z,7.10
2022-10-11T03:33:31.521Z,7.10
2022-10-11T03:35:58.351Z,7.10
2022-10-11T03:38:25.046Z,7.00
2022-10-11T03:40:51.904Z,7.00
2022-10-11T03:43:18.618Z,6.90
2022-10-11T03:45:45.362Z,6.90
2022-10-11T03:48:12.529Z,6.90
2022-10-11T03:50:39.621Z,7.00
2022-10-11T03:53:07.181Z,6.90
2022-10-11T03:55:34.048Z,6.90
2022-10-11T03:58:00.801Z,6.90
2022-10-11T04:00:27.558Z,6.80
2022-10-11T04:02:54.261Z,6.70
2022-10-11T04:05:21.605Z,6.80
2022-10-11T04:07:48.420Z,6.80
2022-10-11T04:10:15.151Z,6.80
2022-10-11T04:12:41.861Z,6.80
2022-10-11T04:15:08.869Z,6.70
2022-10-11T04:17:35.598Z,6.70
2022-10-11T04:20:02.327Z,6.80
2022-10-11T04:22:29.067Z,6.70
2022-10-11T04:24:55.765Z,6.60
2022-10-11T04:30:10.118Z,6.60
2022-10-11T04:35:23.597Z,6.50
2022-10-11T04:37:50.333Z,6.50
2022-10-11T04:40:17.208Z,6.50
2022-10-11T04:42:43.956Z,6.60
2022-10-11T04:45:10.857Z,6.50
2022-10-11T04:47:37.639Z,6.50
2022-10-11T04:50:04.835Z,6.40
2022-10-11T04:52:31.596Z,6.50
2022-10-11T04:54:58.290Z,6.50
2022-10-11T04:57:25.039Z,6.40
2022-10-11T04:59:51.787Z,6.40
2022-10-11T05:02:18.572Z,6.40
2022-10-11T05:04:45.404Z,6.40
2022-10-11T05:07:12.117Z,6.40
2022-10-11T05:09:38.851Z,6.40
2022-10-11T05:12:05.797Z,6.40
2022-10-11T05:14:32.513Z,6.40
2022-10-11T05:16:59.361Z,6.40
2022-10-11T05:19:26.126Z,6.30
2022-10-11T05:21:52.849Z,6.40
2022-10-11T05:24:19.592Z,6.30
2022-10-11T05:26:46.314Z,6.30
2022-10-11T05:29:13.010Z,6.30
2022-10-11T05:31:39.838Z,6.30
2022-10-11T05:34:06.616Z,6.30
2022-10-11T05:36:33.383Z,6.30
2022-10-11T05:41:46.737Z,6.30
2022-10-11T05:44:13.472Z,6.30
2022-10-11T05:46:40.426Z,6.20
2022-10-11T05:49:07.186Z,6.30
2022-10-11T05:51:34.004Z,6.40
2022-10-11T05:54:00.771Z,6.30
2022-10-11T05:56:27.478Z,6.30
2022-10-11T05:58:56.567Z,6.40
2022-10-11T06:01:27.667Z,6.30
2022-10-11T06:03:54.487Z,6.30
2022-10-11T06:06:21.335Z,6.30
2022-10-11T06:08:48.581Z,6.40
2022-10-11T06:11:18.975Z,6.40
2022-10-11T06:13:45.688Z,6.40
2022-10-11T06:16:12.786Z,6.40
2022-10-11T06:18:39.911Z,6.50
2022-10-11T06:21:07.069Z,6.60
2022-10-11T06:23:33.815Z,6.60
2022-10-11T06:26:03.848Z,6.70
2022-10-11T06:28:31.129Z,6.80
2022-10-11T06:30:58.146Z,6.80
2022-10-11T06:33:25.620Z,6.90
2022-10-11T06:38:47.338Z,7.10
2022-10-11T06:44:05.772Z,7.20
2022-10-11T06:49:23.251Z,7.30
2022-10-11T06:51:50.774Z,7.40
2022-10-11T06:57:04.159Z,7.50
2022-10-11T07:02:18.172Z,7.70
2022-10-11T07:07:31.571Z,7.90
2022-10-11T07:12:44.985Z,8.00
2022-10-11T07:15:11.811Z,8.10
2022-10-11T07:17:38.568Z,8.20
2022-10-11T07:20:06.822Z,8.40
2022-10-11T07:22:33.693Z,8.50
2022-10-11T07:25:00.489Z,8.70
2022-10-11T07:27:27.218Z,11.20
2022-10-11T07:29:53.978Z,13.00
2022-10-11T07:32:20.793Z,14.60
2022-10-11T07:34:47.648Z,15.40
2022-10-11T07:37:14.374Z,14.60
2022-10-11T07:39:41.131Z,15.70
2022-10-11T07:42:07.882Z,16.50
2022-10-11T07:44:34.628Z,16.10
2022-10-11T07:47:01.359Z,16.80
2022-10-11T07:49:28.177Z,17.20
2022-10-11T07:51:54.955Z,17.40
2022-10-11T07:54:21.762Z,17.40
2022-10-11T07:56:48.504Z,16.40
2022-10-11T07:59:15.217Z,17.60
2022-10-11T08:01:42.059Z,17.60
2022-10-11T08:04:09.845Z,17.10
2022-10-11T08:06:36.560Z,17.90
2022-10-11T08:11:50.714Z,17.80
2022-10-11T08:14:17.531Z,18.10
2022-10-11T08:16:44.434Z,17.60
2022-10-11T08:19:11.416Z,18.10
2022-10-11T08:21:38.215Z,18.40
2022-10-11T08:24:06.031Z,18.30
2022-10-11T08:26:33.522Z,18.20
2022-10-11T08:29:00.978Z,17.90
2022-10-11T08:31:27.991Z,18.40
2022-10-11T08:33:54.811Z,18.80
2022-10-11T08:36:21.606Z,19.10
2022-10-11T08:38:48.421Z,19.80
2022-10-11T08:41:26.997Z,18.80
2022-10-11T08:44:18.665Z,19.40
2022-10-11T08:46:50.529Z,19.50
2022-10-11T08:49:18.992Z,19.70
2022-10-11T08:51:50.636Z,19.40
2022-10-11T08:54:30.187Z,20.00
2022-10-11T08:59:59.837Z,19.50
2022-10-11T09:03:06.431Z,20.00
2022-10-11T09:05:42.954Z,19.30
2022-10-11T09:08:24.414Z,19.00
2022-10-11T09:11:11.247Z,19.50
2022-10-11T09:16:51.336Z,19.40
2022-10-11T09:19:48.286Z,18.70
2022-10-11T09:22:42.161Z,19.00
2022-10-11T09:28:16.366Z,19.60
2022-10-11T09:30:51.318Z,19.50
2022-10-11T09:39:31.588Z,18.80
2022-10-11T09:42:06.967Z,18.50
2022-10-11T09:44:51.118Z,18.00
2022-10-11T09:47:25.829Z,18.40
2022-10-11T09:50:02.932Z,18.00
2022-10-11T09:52:30.734Z,18.30
2022-10-11T09:55:00.102Z,18.50
2022-10-11T09:57:29.445Z,18.40
2022-10-11T10:00:00.794Z,19.00
2022-10-11T10:02:39.689Z,19.00
2022-10-11T10:05:09.427Z,18.70
2022-10-11T10:07:38.878Z,18.80
2022-10-11T10:10:47.976Z,18.20
2022-10-11T10:13:45.282Z,18.30
2022-10-11T10:16:28.163Z,18.60
2022-10-11T10:19:04.941Z,19.40
2022-10-11T10:21:45.526Z,19.10
2022-10-11T10:24:25.883Z,19.00
2022-10-11T10:27:08.070Z,18.90
2022-10-11T10:29:34.880Z,19.20
2022-10-11T10:32:21.320Z,18.90
2022-10-11T10:35:06.689Z,19.10
2022-10-11T10:37:38.772Z,19.20
2022-10-11T10:40:41.433Z,19.60
2022-10-11T10:49:41.147Z,20.00
2022-10-11T10:52:34.763Z,19.60
2022-10-11T10:55:28.332Z,19.80
2022-10-11T10:58:16.394Z,19.90
2022-10-11T11:00:51.372Z,20.90
2022-10-11T11:03:45.687Z,20.70
2022-10-11T11:06:46.470Z,21.00
2022-10-11T11:09:38.756Z,21.20
2022-10-11T11:15:35.563Z,20.60
2022-10-11T11:18:22.752Z,19.90
2022-10-11T11:24:15.759Z,20.10
2022-10-11T11:26:51.995Z,20.00
2022-10-11T11:29:34.853Z,19.60
2022-10-11T11:32:16.716Z,18.50
2022-10-11T11:35:00.105Z,19.30
2022-10-11T11:37:37.264Z,20.30
2022-10-11T11:40:14.319Z,19.10
2022-10-11T11:42:51.579Z,18.70
2022-10-11T11:45:35.021Z,18.60
2022-10-11T11:54:15.427Z,20.90
2022-10-11T11:57:09.695Z,21.00
2022-10-11T11:59:40.719Z,20.20
2022-10-11T12:02:32.222Z,20.90
2022-10-11T12:05:00.115Z,20.80
2022-10-11T12:07:29.127Z,19.80
2022-10-11T12:10:18.659Z,19.70
2022-10-11T12:15:32.610Z,19.40
2022-10-11T12:21:08.423Z,19.90
2022-10-11T12:23:42.169Z,20.60
2022-10-11T12:26:29.094Z,21.30
2022-10-11T12:29:29.251Z,20.10
2022-10-11T12:31:58.848Z,18.90
2022-10-11T12:37:33.197Z,17.60
2022-10-11T12:40:00.331Z,17.10
2022-10-11T12:45:20.832Z,17.00
2022-10-11T12:48:16.932Z,17.10
2022-10-11T12:50:53.913Z,17.30
2022-10-11T12:53:38.384Z,17.40
2022-10-11T12:59:43.101Z,16.70
2022-10-11T13:02:39.306Z,16.50
2022-10-11T13:05:20.992Z,16.10
2022-10-11T13:07:48.434Z,16.10
2022-10-11T13:10:19.692Z,15.90
2022-10-11T13:12:47.918Z,15.60
2022-10-11T13:15:20.721Z,15.70
2022-10-11T13:17:47.812Z,15.60
2022-10-11T13:20:17.311Z,15.40
2022-10-11T13:22:47.515Z,15.20
2022-10-11T13:25:43.500Z,15.30
2022-10-11T13:28:10.353Z,15.50
2022-10-11T13:30:42.166Z,15.80
2022-10-11T13:33:19.639Z,16.10
2022-10-11T13:38:36.409Z,16.30
2022-10-11T13:43:55.390Z,16.30
2022-10-11T13:46:27.677Z,16.40
2022-10-11T13:49:03.441Z,16.50
2022-10-11T13:54:20.382Z,15.90
2022-10-11T13:59:43.449Z,15.60
2022-10-11T14:02:20.639Z,15.70
2022-10-11T14:04:47.603Z,15.50
2022-10-11T14:10:21.723Z,15.40
2022-10-11T14:13:35.304Z,15.40
2022-10-11T14:16:30.921Z,15.10
2022-10-11T14:21:48.683Z,14.90
2022-10-11T14:24:15.645Z,14.90
2022-10-11T14:26:50.927Z,14.80
2022-10-11T14:29:26.024Z,14.70
2022-10-11T14:32:04.149Z,14.70
2022-10-11T14:34:31.760Z,14.50
2022-10-11T14:36:58.852Z,14.60
2022-10-11T14:39:27.696Z,14.40
2022-10-11T14:41:54.833Z,14.40
2022-10-11T14:44:22.628Z,14.40
2022-10-11T14:46:51.882Z,14.30
2022-10-11T14:49:24.105Z,14.20
2022-10-11T14:51:52.146Z,14.20
2022-10-11T14:57:07.192Z,14.00
2022-10-11T15:02:22.810Z,13.70
2022-10-11T15:04:49.528Z,13.50
2022-10-11T15:07:16.299Z,13.50
2022-10-11T15:09:42.998Z,13.40
2022-10-11T15:12:09.721Z,13.40
2022-10-11T15:14:36.463Z,13.40
2022-10-11T15:17:03.197Z,13.20
2022-10-11T15:19:29.933Z,13.20
2022-10-11T15:21:56.640Z,13.20
2022-10-11T15:24:23.382Z,13.10
2022-10-11T15:26:50.143Z,13.00
2022-10-11T15:29:17.045Z,13.00
2022-10-11T15:31:44.328Z,13.00
2022-10-11T15:34:11.195Z,13.00
2022-10-11T15:36:38.173Z,13.10
2022-10-11T15:39:22.220Z,13.00
2022-10-11T15:41:48.963Z,13.00
2022-10-11T15:44:15.726Z,13.00
2022-10-11T15:46:42.470Z,12.90
2022-10-11T15:49:13.745Z,12.80
2022-10-11T15:51:40.867Z,12.80
2022-10-11T15:54:07.649Z,12.80
2022-10-11T15:56:34.628Z,12.80
2022-10-11T15:59:01.588Z,12.80
2022-10-11T16:01:28.630Z,12.80
2022-10-11T16:03:55.423Z,12.70
2022-10-11T16:06:22.141Z,12.70
2022-10-11T16:08:48.895Z,12.60
2022-10-11T16:11:15.750Z,12.60
2022-10-11T16:13:42.551Z,12.50
2022-10-11T16:16:10.331Z,12.40
2022-10-11T16:18:38.380Z,12.30
2022-10-11T16:21:10.428Z,12.20
2022-10-11T16:23:38.258Z,12.10
2022-10-11T16:26:07.636Z,11.90
2022-10-11T16:28:35.156Z,11.90
2022-10-11T16:31:07.471Z,11.80
2022-10-11T16:33:34.303Z,11.70
2022-10-11T16:36:01.135Z,11.60
2022-10-11T16:38:27.937Z,11.50
2022-10-11T16:40:54.685Z,11.40
2022-10-11T16:43:21.488Z,11.40
2022-10-11T16:45:48.232Z,11.30
2022-10-11T16:48:14.962Z,11.30
2022-10-11T16:53:28.386Z,11.10
2022-10-11T16:55:55.130Z,11.10
2022-10-11T16:58:21.983Z,11.10
2022-10-11T17:00:48.919Z,11.10
2022-10-11T17:03:15.710Z,11.00
2022-10-11T17:05:42.478Z,11.00
2022-10-11T17:08:09.230Z,11.00
2022-10-11T17:10:36.023Z,11.00
2022-10-11T17:15:29.567Z,11.00
2022-10-11T17:17:56.343Z,10.90
2022-10-11T17:23:09.986Z,10.90
2022-10-11T17:25:46.816Z,10.80
2022-10-11T17:28:13.729Z,10.90
2022-10-11T17:30:40.500Z,10.80
2022-10-11T17:33:07.378Z,10.80
2022-10-11T17:35:34.561Z,10.80
2022-10-11T17:38:05.935Z,10.80
2022-10-11T17:40:33.299Z,10.80
2022-10-11T17:43:00.131Z,10.70
2022-10-11T17:45:26.877Z,10.70
2022-10-11T17:50:20.293Z,10.60
2022-10-11T17:52:47.135Z,10.70
2022-10-11T17:58:00.522Z,10.60
2022-10-11T18:00:27.242Z,10.60
2022-10-11T18:02:57.131Z,10.60
2022-10-11T18:05:24.034Z,10.60
2022-10-11T18:10:42.903Z,10.60
2022-10-11T18:13:15.435Z,10.50
2022-10-11T18:15:42.262Z,10.50
2022-10-11T18:18:08.981Z,10.50
2022-10-11T18:20:35.687Z,10.50
2022-10-11T18:23:02.471Z,10.40
2022-10-11T18:25:29.196Z,10.40
2022-10-11T18:27:55.924Z,10.40
2022-10-11T18:30:22.651Z,10.40
2022-10-11T18:32:49.385Z,10.40
2022-10-11T18:35:16.232Z,10.40
2022-10-11T18:40:29.640Z,10.40
2022-10-11T18:45:43.184Z,10.50
2022-10-11T18:48:09.907Z,10.50
2022-10-11T18:50:36.691Z,10.50
2022-10-11T18:55:50.355Z,10.50
2022-10-11T18:58:17.063Z,10.40
2022-10-11T19:00:43.788Z,10.40
2022-10-11T19:03:10.486Z,10.50
2022-10-11T19:05:39.076Z,10.40
2022-10-11T19:08:05.993Z,10.50
2022-10-11T19:10:34.432Z,10.60
2022-10-11T19:13:02.251Z,10.60
2022-10-11T19:15:29.106Z,10.50
2022-10-11T19:17:55.897Z,10.60
2022-10-11T19:20:22.603Z,10.60
2022-10-11T19:22:49.342Z,10.60
2022-10-11T19:25:16.087Z,10.60
2022-10-11T19:27:42.822Z,10.70
2022-10-11T19:30:09.907Z,10.70
2022-10-11T19:35:23.332Z,10.60
2022-10-11T19:40:37.130Z,10.70
2022-10-11T19:45:50.514Z,10.60
2022-10-11T19:51:09.726Z,10.60
2022-10-11T19:56:23.880Z,10.60
2022-10-11T19:58:51.705Z,10.60
2022-10-11T20:01:24.365Z,10.60
2022-10-11T20:03:56.816Z,10.60
2022-10-11T20:06:25.306Z,10.50
2022-10-11T20:09:10.396Z,10.60
2022-10-11T20:11:39.513Z,10.60
2022-10-11T20:14:06.527Z,10.60
2022-10-11T20:16:33.274Z,10.60
2022-10-11T20:18:59.998Z,10.60
2022-10-11T20:21:28.799Z,10.70
2022-10-11T20:24:01.124Z,10.60
2022-10-11T20:26:29.128Z,10.60
2022-10-11T20:28:57.193Z,10.60
2022-10-11T20:31:27.220Z,10.60
2022-10-11T20:33:56.083Z,10.60
2022-10-11T20:36:23.973Z,10.60
2022-10-11T20:38:51.786Z,10.60
2022-10-11T20:41:22.222Z,10.60
2022-10-11T20:43:52.316Z,10.50
2022-10-11T20:46:21.834Z,10.50
2022-10-11T20:51:39.604Z,10.50
2022-10-11T20:56:53.149Z,10.50
2022-10-11T20:59:19.888Z,10.50
2022-10-11T21:01:46.648Z,10.50
2022-10-11T21:04:19.504Z,10.40
2022-10-11T21:09:33.944Z,10.50
2022-10-11T21:14:47.969Z,10.30
2022-10-11T21:17:14.683Z,10.30
2022-10-11T21:19:41.428Z,10.20
2022-10-11T21:22:08.171Z,10.20
2022-10-11T21:24:34.909Z,10.10
2022-10-11T21:27:01.665Z,10.00
2022-10-11T21:29:28.415Z,10.00
2022-10-11T21:31:55.121Z,9.90
2022-10-11T21:34:21.830Z,9.90
2022-10-11T21:36:48.583Z,9.80
2022-10-11T21:39:15.279Z,9.70
2022-10-11T21:41:42.119Z,9.60
2022-10-11T21:44:08.886Z,9.60
2022-10-11T21:47:09.452Z,9.50
2022-10-11T21:52:09.859Z,9.40
2022-10-11T21:57:23.399Z,9.30
2022-10-11T21:59:50.132Z,9.20
2022-10-11T22:02:16.914Z,9.20
2022-10-11T22:04:43.714Z,9.20
2022-10-11T22:07:10.429Z,9.10
2022-10-11T22:09:37.169Z,9.10
2022-10-11T22:12:04.595Z,9.00
2022-10-11T22:14:31.679Z,8.90
2022-10-11T22:19:45.416Z,8.80
2022-10-11T22:24:59.047Z,8.70
2022-10-11T22:30:12.597Z,8.60
2022-10-11T22:32:39.353Z,8.50
2022-10-11T22:35:06.487Z,8.50
2022-10-11T22:37:34.439Z,8.40
2022-10-11T22:40:01.397Z,8.40
2022-10-11T22:42:29.559Z,8.20
2022-10-11T22:44:56.278Z,8.20
2022-10-11T22:47:23.011Z,8.30
2022-10-11T22:49:49.957Z,8.10
2022-10-11T22:52:16.951Z,8.10
2022-10-11T22:54:43.766Z,8.00
2022-10-11T22:57:10.487Z,8.00
2022-10-11T22:59:37.237Z,8.00
2022-10-11T23:02:03.939Z,7.90
2022-10-11T23:04:31.102Z,7.90
2022-10-11T23:07:01.307Z,7.90
2022-10-11T23:09:31.505Z,7.80
2022-10-11T23:11:58.923Z,7.80
2022-10-11T23:14:25.735Z,7.80
2022-10-11T23:16:53.222Z,7.80
2022-10-11T23:19:20.095Z,7.70
2022-10-11T23:21:47.137Z,7.70
2022-10-11T23:24:14.020Z,7.70
2022-10-11T23:26:40.781Z,7.70
2022-10-11T23:29:07.540Z,7.50
2022-10-11T23:31:34.290Z,7.50
2022-10-11T23:34:01.049Z,7.60
2022-10-11T23:36:27.786Z,7.50
2022-10-11T23:38:57.150Z,7.40
2022-10-11T23:41:26.322Z,7.40
2022-10-11T23:43:53.662Z,7.40
2022-10-11T23:46:21.050Z,7.40
2022-10-11T23:48:48.204Z,7.40
2022-10-11T23:51:15.334Z,7.30
2022-10-11T23:53:42.089Z,7.40
2022-10-11T23:56:10.642Z,7.40
2022-10-11T23:58:38.083Z,7.40
